ACT        NSW        VIC        QLD        SA        WA        TAS        NT        INFO        CALC            by VK5ZD

Past Date/Time: (dd/mm/yyyy hh:mm or blank for current data)    

  Atmospheric Gas Attenuation - ITU Rec 676-11   --------------- dB/100km ---------------
WA Stations Date Time Temp RH % AH g/m3 Dew Point Wind Direction Speed kph Gust kph Barometer mB Rainfall Since 9am 24GHz 47GHz 76GHz 122GHz 134GHz 241GHz
Albany Airport 05/05 08:10 13.8 89 10.6 12 7 9 1028.8 0 23.8 29.9 48.9 128.5 127.3 439.5
Badgingarra 05/05 08:10 13.9 66 7.91 7.6 20 26 1013.1 0 18.1 24.8 37.0 97.0 89.3 306.6
Barimunya 05/05 08:10 17.1 36 5.24 1.9 24 28 1013.1 0 12.3 20.1 26.1 67.9 54.5 184.8
Barrow Island 05/05 08:10 25 42 9.67 11.2 44 46 1017.2 0 21.3 24.5 38.6 101.3 98.1 338.8
Bedout Island 05/05 08:10 24.3 45 9.96 11.6 50 54 1016.3 0 21.9 25.1 39.9 104.9 102.4 353.6
Bickley 05/05 08:10 9.5 92 8.38 8.3 22 28 1013.1 0 19.3 26.8 41.1 107.9 101.0 346.9
Boolgeeda 05/05 08:10 18.6 28 4.46 -0.2 24 30 1019.5 0 10.7 18.9 23.3 60.4 45.4 153.0
Bridgetown 05/05 08:10 8.1 99 8.24 7.9 0 0 1028.9 0.2 19.1 27.6 42.0 109.9 102.2 350.8
Broome 05/05 08:10 22.5 38 7.59 7.5 13 15 1014.9 0 17.1 22.1 32.3 84.4 76.6 263.1
Bunbury 05/05 08:10 10.8 100 9.89 10.9 6 6 1028 0 22.5 29.6 47.6 125.0 121.9 420.2
Busselton Airport 05/05 08:10 11.3 94 9.59 10.4 9 11 1028.1 0 21.8 28.9 46.0 120.7 116.8 402.4
Cape Leeuwin 05/05 08:10 13.6 83 9.77 10.8 19 20 1028.3 0 22.1 28.5 45.4 119.3 115.9 399.4
Cape Naturaliste 05/05 08:10 11.7 88 9.21 9.8 22 26 1027.5 0.2 21.0 28.1 44.1 115.7 110.8 381.3
Carnarvon 05/05 08:10 21.8 26 4.99 1.5 19 22 1018.9 0 11.7 18.9 24.1 62.5 49.1 166.4
Christmas Creek 05/05 08:10 15.4 37 4.86 1 20 26 1022.3 0 11.6 20.2 25.7 66.6 51.8 175.1
Christmas Island 05/05 08:10 26.2 91 22.4 24.6 19 26 1010.7 0 48.1 46.0 92.3 244.4 274.6 954.0
Cocos Island 05/05 08:10 26.2 95 23.39 25.3 24 32 1010.5 7 50.2 48.0 97.4 257.8 291.0 1011.1
Collie East 05/05 08:10 5.5 99 6.96 5.4 2 6 1013.1 0 16.4 25.6 37.1 97.1 86.1 294.3
Coondewanna 05/05 08:10 15.7 38 5.08 1.4 20 24 1013.1 0 12.0 20.1 26.0 67.6 53.6 181.7
Cunderdin Airport 05/05 08:10 11 84 8.41 8.4 15 17 1027.4 0 19.3 27.0 41.1 107.7 100.6 345.7
Curtin 05/05 08:10 24.9 30 6.87 6.1 22 24 1013.1 0 15.5 20.6 28.9 75.5 66.4 227.7
Dalwallinu 05/05 08:10 12.2 75 8.09 7.9 15 17 1026.1 0 18.6 26.0 39.1 102.4 94.6 325.0
Dwellingup 05/05 08:10 7.2 96 7.54 6.6 13 15 1028 0 17.6 26.7 39.4 103.0 93.4 319.7
Eliwana Airport 05/05 08:10 20.1 25 4.35 -0.4 32 33 1013.1 0 10.4 18.3 22.4 57.9 43.2 145.4
Esperance 05/05 08:10 14.5 85 10.57 12 13 15 1029 0 23.7 29.6 48.4 127.1 125.8 434.2
Esperance Airport 05/05 08:10 13 89 10.09 11.2 15 17 1029.2 0 22.8 29.3 47.2 124.0 121.4 418.7
Eucla 05/05 08:10 14.5 93 11.57 13.4 6 7 1027.2 7.4 25.9 31.3 52.7 138.5 140.0 483.8
Eyre 05/05 06:00 12.5 99 10.89 12.3 0 1026.6 0 24.6 30.7 50.9 133.9 133.6 461.1
Fitzroy Crossing 05/05 08:10 24.6 38 8.55 9.3 1013.8 0 19.0 22.9 34.7 90.9 85.3 293.9
Forrest 05/05 08:10 13.8 89 10.6 12 7 7 1027.6 0 23.8 29.8 48.9 128.4 127.2 439.1
Fortescue Dave Forrest 05/05 08:09 15.2 41 5.32 2 22 28 1021.4 0 12.6 20.9 27.3 70.9 57.1 193.8
Garden Island 05/05 08:10 15 77 9.87 11 11 15 1027.1 0 22.2 28.2 45.0 118.1 115.1 396.8
Geraldton Airport 05/05 08:10 16.7 53 7.53 7.1 22 24 1023.6 0 17.2 23.8 34.8 90.9 82.2 282.0
Gerangamete (Cfa) 05/05 10:00 12.8 77 8.63 8.9 13 15 1013.1 0 19.7 26.2 40.4 106.1 100.1 344.2
Giles* 05/05 09:50 15.4 47 6.17 4.2 32 41 1023.1 0 14.4 22.1 30.3 78.9 67.0 228.4
Gingin Airport 05/05 08:10 13.6 74 8.71 9.1 11 13 1026.7 0 19.8 26.6 41.0 107.3 101.2 348.2
Golden Grove 05/05 08:10 14.6 60 7.51 6.9 20 24 1013.1 0 17.2 23.9 35.2 92.1 83.4 286.1
Gooseberry Hill 05/05 08:10 11.8 82 8.63 8.8 32 41 1013.1 0 19.8 26.5 40.9 107.5 101.4 348.6
Gudai-Darri Mine 05/05 08:10 17.8 36 5.46 2.6 32 37 1013.1 0 12.8 20.2 26.6 69.3 56.4 191.8
Halls Creek 05/05 09:50 25.9 56 13.56 16.5 26 32 1015 0 29.4 30.2 52.8 139.1 145.1 503.1
Hopetoun North 05/05 08:10 14.6 79 9.89 11 0 0 1028.5 0 22.3 28.4 45.4 119.1 116.1 400.2
Iron Bridge Mine 05/05 08:10 21.3 24 4.47 0.1 22 24 1013.1 0 10.6 18.2 22.4 58.1 43.8 147.7
Jacup 05/05 08:10 12.1 86 9.22 9.8 6 6 1028.8 0.2 21.0 28.0 44.0 115.4 110.5 380.3
Jandakot 05/05 08:10 14.2 73 8.91 9.4 11 11 1026.9 0 20.2 26.8 41.5 108.7 103.1 355.0
Kalgoorlie-Boulder 05/05 08:10 13.4 85 9.88 10.9 15 17 1027.6 0 22.3 28.7 46.0 120.8 117.7 405.6
Kalumburu 05/05 09:50 30.4 64 19.84 22.8 11 13 1012.4 0 42.2 39.0 75.6 200.0 221.2 769.1
Karijini North 05/05 08:10 19.1 30 4.92 1.1 32 39 1019.8 0 11.6 19.4 24.7 64.0 50.0 169.3
Karratha 05/05 08:10 24 24 5.22 2.2 35 41 1018.3 0 12.1 18.8 24.1 62.7 50.1 170.2
Katanning Rs 05/05 08:10 7.7 98 7.95 7.4 6 6 1028.9 0 18.5 27.2 40.9 107.2 98.6 338.1
Koolan Island / Koolan Central 05/05 08:10 27.2 33 8.59 9.5 24 28 1013.1 0 18.9 22.3 33.7 88.4 83.0 286.1
Kununurra Airport 05/05 09:50 28.4 57 15.85 19.3 19 22 1014.2 0 34.0 33.0 60.3 159.2 170.4 592.0
Lake Grace 05/05 08:10 9.8 100 9.28 9.8 0 0 1028.8 0 21.2 28.9 45.6 119.5 114.7 394.8
Lancelin (Defence) 05/05 08:10 15.2 69 8.96 9.7 17 22 1025 0 20.3 26.5 41.1 107.7 102.3 352.3
Laverton 05/05 08:10 13.8 89 10.6 12 24 26 1026.4 0 23.9 29.8 48.8 128.3 127.1 438.7
Learmonth 05/05 08:10 25.5 74 17.52 20.5 17 20 1017.9 0 37.7 37.3 70.1 185.4 201.7 700.4
Legendre Island 05/05 08:10 25 37 8.52 9.3 50 57 1017.2 0 18.9 22.9 34.5 90.5 84.8 292.1
Leinster 05/05 08:10 13.1 70 7.99 7.8 15 17 1025.2 0 18.3 25.6 38.2 100.1 92.2 316.4
Leonora Airport 05/05 08:10 12.2 71 7.66 7.1 9 13 1026.4 0 17.6 25.3 37.4 97.8 89.0 305.1
Lombadina 05/05 08:10 24.2 40 8.8 9.8 19 22 1013.1 0 19.5 23.4 35.7 93.6 88.6 305.3
Mandora 05/05 08:10 22.4 24 4.77 0.9 17 26 1017.1 0 11.2 18.5 23.2 60.1 46.4 157.0
Mandurah 05/05 08:10 12.4 79 8.63 8.8 4 4 1027.2 0 19.7 26.9 41.3 108.1 101.8 349.9
Manjimup 05/05 08:10 7.9 99 8.14 7.8 6 6 1028.6 0 18.9 27.5 41.6 109.0 101.0 346.6
Marble Bar 05/05 08:10 20.9 25 4.55 0.1 28 33 1018.8 0 10.8 18.6 23.0 59.4 45.1 152.0
Mardie 05/05 08:10 24.3 23 5.09 1.8 20 24 1017.8 0 11.8 18.5 23.6 61.4 48.6 164.9
Meekatharra 05/05 08:10 14.7 58 7.3 6.5 26 32 1023.8 0 16.8 24.0 34.8 90.8 81.4 279.1
Millendon (Swan Valley) 05/05 08:10 14.7 68 8.56 9 2 4 1026.7 0 19.4 26.1 39.8 104.2 97.8 336.5
Morawa Airport 05/05 08:10 14.3 60 7.37 6.6 19 20 1025.2 0 16.9 24.2 35.3 92.1 82.8 283.9
Mount Keith 05/05 08:10 13.5 65 7.6 7.1 17 19 1013.1 0 17.5 24.4 36.0 94.3 85.7 294.2
Mount Magnet Airport 05/05 08:10 14.1 63 7.65 7.2 19 20 1025.1 0 17.5 24.7 36.4 95.3 86.6 297.1
Munglinup West 05/05 08:10 11.4 92 9.44 10.1 6 6 1029 0.2 21.5 28.7 45.3 118.9 114.6 394.7
Newdegate 05/05 08:10 9.9 93 8.69 8.9 4 4 1028.6 0 20.0 27.8 42.9 112.5 106.1 364.7
Newman Airport 05/05 08:10 15.9 44 5.96 3.7 22 28 1021.6 0 13.9 21.6 29.3 76.3 64.0 218.1
Norseman Airport 05/05 08:10 10.3 98 9.39 10 7 11 1028.9 0 21.4 28.9 45.7 120.1 115.5 397.8
North Island 05/05 08:10 20.7 52 9.36 10.5 32 37 1022.5 0 20.8 25.5 39.7 104.2 100.1 345.4
Onslow Airport 05/05 08:10 23.6 37 7.87 8.1 20 22 1018.7 0 17.6 22.4 32.9 86.2 78.9 271.4
Paraburdoo 05/05 08:10 19.2 29 4.78 0.8 17 20 1019.5 0 11.3 19.2 24.2 62.7 48.5 163.8
Pearce 05/05 08:10 14.8 65 8.23 8.3 4 6 1026.3 0 18.7 25.5 38.4 100.6 93.4 320.9
Perth 05/05 08:10 13.9 74 8.87 9.3 6 13 1026.9 0 20.1 26.8 41.5 108.7 103.0 354.5
Perth Airport 05/05 08:10 13.3 72 8.32 8.4 15 19 1026.8 0 19.0 26.1 39.5 103.5 96.4 331.3
Port Hedland 05/05 08:10 22.9 24 4.9 1.3 20 26 1018.1 0 11.5 18.6 23.5 60.8 47.5 160.9
Portable Btsa (Dfes) 05/05 08:00 19.3 32 5.31 2.3 15 19 1013.1 0 12.4 19.7 25.7 66.7 53.8 182.6
Portable Btsb (Dfes) 05/05 08:00 10.3 89 8.53 8.5 6 7 1013.1 0 19.6 26.8 41.3 108.4 102.0 350.6
Portable Btsd (Dfes) 05/05 08:00 10.5 86 8.34 8.3 13 17 1013.1 0 19.2 26.4 40.4 106.0 99.1 340.5
Portable Btsf (Dfes) 05/05 08:00 13.6 61 7.18 6.3 22 28 1013.1 0 16.6 23.7 34.3 89.8 80.3 275.2
Portable Btsh (Dfes) 05/05 08:00 13.3 100 11.55 13.3 2 4 1013.1 0.2 26.0 31.1 52.6 138.7 140.4 485.2
Portable Btsj (Dfes) 05/05 08:00 11.2 90 9.12 9.7 0 0 1013.1 0 20.8 27.5 43.3 113.8 108.9 375.0
Portable Btsk (Dfes) 05/05 08:00 22.7 27 5.45 2.8 9 11 1013.1 0 12.6 19.2 25.1 65.2 53.1 180.5
Portable Btsl (Dfes) 05/05 08:00 7.5 96 7.69 6.9 4 6 1013.1 0 17.9 26.2 39.2 102.8 93.9 321.9
Portable Btsm (Dfes) 05/05 08:00 14.9 51 6.5 4.9 7 9 1013.1 0 15.1 22.4 31.3 81.7 70.7 241.7
Portable Btsn (Dfes) 05/05 08:00 13.6 65 7.65 7.1 15 17 1013.1 0 17.6 24.4 36.1 94.7 86.3 296.0
Portable Btso (Dfes) 05/05 08:00 5.4 96 6.7 4.8 6 6 1013.1 0.2 15.9 25.2 36.0 94.3 82.6 282.0
Red Rocks Point 05/05 08:10 14.7 93 11.71 13.6 13 15 1027.5 0.8 26.2 31.5 53.2 139.9 141.7 489.8
Rocky Gully South 05/05 08:10 10.4 97 9.35 9.9 2 4 1013.1 0 21.4 28.2 44.7 117.6 113.4 390.3
Roebourne Airport 05/05 08:10 23.8 24 5.16 2 26 30 1018.8 0 12.0 18.8 24.0 62.4 49.7 168.5
Rottnest Island 05/05 08:10 15.4 71 9.33 10.2 15 19 1026.4 0 21.0 27.1 42.5 111.5 107.1 369.0
Salmon Gums Rs 05/05 08:10 11 100 10.01 11 6 7 1013.1 0 22.8 29.1 47.3 124.4 121.9 420.3
Shannon 05/05 08:10 10.8 100 9.89 11.1 7 7 1013.1 1.6 22.5 29.0 46.9 123.3 120.5 415.3
Shark Bay Airport 05/05 08:10 20.6 39 6.98 6.2 26 30 1019.7 0 15.9 21.9 31.1 81.1 71.7 245.7
Solomon Airport 05/05 08:10 18 30 4.61 0.2 24 26 1020.5 0 11.0 19.3 24.0 62.2 47.4 159.9
Southern Cross Airport 05/05 08:10 9.9 90 8.41 8.3 6 7 1027.9 0 19.4 27.3 41.7 109.2 102.1 350.7
Swanbourne 05/05 08:10 13.6 88 10.36 11.6 19 24 1013.1 0 23.4 28.9 47.2 124.2 122.7 423.5
Telfer 05/05 08:10 18.2 35 5.44 2.5 33 37 1019.1 0 12.7 20.3 26.6 69.2 56.2 191.1
Thevenard Island 05/05 08:00 25.5 36 8.52 9.3 33 44 1017.9 0 18.9 22.8 34.3 90.0 84.3 290.5
Troughton Island 05/05 09:50 30.2 78 23.92 25.9 9 11 1012.5 0 50.8 46.8 95.0 251.6 284.5 989.0
Truscott 05/05 09:50 30 69 20.93 23.7 9 11 1012.2 0 44.5 41.2 80.9 214.2 238.6 829.4
Walpole North 05/05 08:10 11.4 99 10.16 11.2 0 0 1028.5 1 23.0 29.9 48.5 127.3 124.9 430.8
Wandering 05/05 08:10 5.5 97 6.82 5.1 6 6 1013.1 0 16.1 25.3 36.5 95.5 84.2 287.5
West Angelas 05/05 08:10 15.7 40 5.35 2.3 30 35 1021.7 0 12.6 20.8 27.2 70.8 57.1 193.8
West Musgrave Airport 05/05 08:10 14.8 50 6.33 4.5 20 28 1013.1 0 14.7 22.1 30.7 80.1 68.8 234.8
Wiluna Airport 05/05 08:10 13.8 63 7.51 6.9 24 28 1024.8 0 17.3 24.6 36.0 94.1 85.1 291.9
Witchcliffe West 05/05 08:10 9.6 100 9.16 9.7 13 15 1028.3 0.2 21.0 28.7 45.1 118.4 113.2 389.6
Wyndham Airport 05/05 09:50 30.4 50 15.5 19.1 20 24 1013.5 0 33.1 31.7 57.3 151.4 161.4 560.8
Yampi Sound (Defence) 05/05 08:10 25.4 32 7.53 7.9 7 9 1013.1 0 16.8 21.3 30.9 80.8 73.1 251.3

Last Refresh: 05-May-2026 09:54:17

Bureau of Meteorology